sensor_id;sensor_type;location;lat;lon;timestamp;pressure;altitude;pressure_sealevel;temperature;humidity
64019;BME280;66942;52.138;5.216;2023-07-13T00:00:54;101360.0;;;26.8;40.76
64019;BME280;66942;52.138;5.216;2023-07-13T00:02:30;101359.0;;;26.88;40.56
64019;BME280;66942;52.138;5.216;2023-07-13T00:04:06;101360.0;;;26.95;40.51
64019;BME280;66942;52.138;5.216;2023-07-13T00:07:18;101360.0;;;26.9;40.5
64019;BME280;66942;52.138;5.216;2023-07-13T00:08:54;101357.0;;;26.97;40.32
64019;BME280;66942;52.138;5.216;2023-07-13T00:10:31;101355.0;;;26.9;40.39
64019;BME280;66942;52.138;5.216;2023-07-13T00:12:22;101359.0;;;26.78;40.67
64019;BME280;66942;52.138;5.216;2023-07-13T00:15:40;101359.0;;;26.88;40.58
64019;BME280;66942;52.138;5.216;2023-07-13T00:17:16;101366.0;;;26.77;41.05
64019;BME280;66942;52.138;5.216;2023-07-13T00:18:52;101362.0;;;26.94;40.64
64019;BME280;66942;52.138;5.216;2023-07-13T00:20:28;101361.0;;;26.79;40.74
64019;BME280;66942;52.138;5.216;2023-07-13T00:23:41;101359.0;;;26.8;40.76
64019;BME280;66942;52.138;5.216;2023-07-13T00:25:18;101357.0;;;26.75;40.82
64019;BME280;66942;52.138;5.216;2023-07-13T00:26:55;101357.0;;;26.64;41.0
64019;BME280;66942;52.138;5.216;2023-07-13T00:30:09;101361.0;;;26.59;41.04
64019;BME280;66942;52.138;5.216;2023-07-13T00:31:46;101361.0;;;26.67;40.78
64019;BME280;66942;52.138;5.216;2023-07-13T00:33:23;101363.0;;;26.6;40.86
64019;BME280;66942;52.138;5.216;2023-07-13T00:36:35;101365.0;;;26.62;40.82
64019;BME280;66942;52.138;5.216;2023-07-13T00:38:11;101367.0;;;26.67;40.58
64019;BME280;66942;52.138;5.216;2023-07-13T00:39:47;101364.0;;;26.56;40.74
64019;BME280;66942;52.138;5.216;2023-07-13T00:41:23;101365.0;;;26.66;40.47
64019;BME280;66942;52.138;5.216;2023-07-13T00:44:35;101363.0;;;26.58;40.6
64019;BME280;66942;52.138;5.216;2023-07-13T00:46:17;101365.0;;;26.65;40.44
64019;BME280;66942;52.138;5.216;2023-07-13T00:48:00;101361.0;;;26.45;40.75
64019;BME280;66942;52.138;5.216;2023-07-13T00:51:13;101362.0;;;26.49;40.58
64019;BME280;66942;52.138;5.216;2023-07-13T00:52:53;101357.0;;;26.5;40.6
64019;BME280;66942;52.138;5.216;2023-07-13T00:54:33;101359.0;;;26.47;40.61
64019;BME280;66942;52.138;5.216;2023-07-13T00:56:15;101358.0;;;26.52;40.44
64019;BME280;66942;52.138;5.216;2023-07-13T00:59:28;101360.0;;;26.34;40.78
64019;BME280;66942;52.138;5.216;2023-07-13T01:01:05;101361.0;;;26.31;40.76
64019;BME280;66942;52.138;5.216;2023-07-13T01:02:42;101362.0;;;26.32;40.79
64019;BME280;66942;52.138;5.216;2023-07-13T01:04:23;101365.0;;;26.22;40.93
64019;BME280;66942;52.138;5.216;2023-07-13T01:07:36;101366.0;;;26.2;40.93
64019;BME280;66942;52.138;5.216;2023-07-13T01:09:14;101367.0;;;26.19;40.89
64019;BME280;66942;52.138;5.216;2023-07-13T01:10:52;101368.0;;;26.15;41.05
64019;BME280;66942;52.138;5.216;2023-07-13T01:14:05;101372.0;;;26.11;41.05
64019;BME280;66942;52.138;5.216;2023-07-13T01:15:43;101373.0;;;26.12;41.09
64019;BME280;66942;52.138;5.216;2023-07-13T01:17:20;101375.0;;;26.16;40.96
64019;BME280;66942;52.138;5.216;2023-07-13T01:20:34;101374.0;;;26.1;41.14
64019;BME280;66942;52.138;5.216;2023-07-13T01:22:14;101377.0;;;26.1;41.12
64019;BME280;66942;52.138;5.216;2023-07-13T01:23:51;101374.0;;;26.09;41.17
64019;BME280;66942;52.138;5.216;2023-07-13T01:25:28;101373.0;;;26.1;41.14
64019;BME280;66942;52.138;5.216;2023-07-13T01:28:42;101374.0;;;25.88;41.73
64019;BME280;66942;52.138;5.216;2023-07-13T01:30:19;101375.0;;;25.89;41.71
64019;BME280;66942;52.138;5.216;2023-07-13T01:31:55;101373.0;;;25.87;41.62
64019;BME280;66942;52.138;5.216;2023-07-13T01:35:07;101380.0;;;25.88;41.68
64019;BME280;66942;52.138;5.216;2023-07-13T01:36:43;101383.0;;;25.82;41.74
64019;BME280;66942;52.138;5.216;2023-07-13T01:38:22;101381.0;;;25.85;41.78
64019;BME280;66942;52.138;5.216;2023-07-13T01:39:59;101384.0;;;25.82;41.9
64019;BME280;66942;52.138;5.216;2023-07-13T01:43:11;101382.0;;;25.81;41.95
64019;BME280;66942;52.138;5.216;2023-07-13T01:44:48;101381.0;;;25.72;42.23
64019;BME280;66942;52.138;5.216;2023-07-13T01:46:24;101380.0;;;25.67;42.25
64019;BME280;66942;52.138;5.216;2023-07-13T01:49:37;101380.0;;;25.7;42.31
64019;BME280;66942;52.138;5.216;2023-07-13T01:51:13;101377.0;;;25.65;42.43
64019;BME280;66942;52.138;5.216;2023-07-13T01:52:49;101377.0;;;25.64;42.5
64019;BME280;66942;52.138;5.216;2023-07-13T01:56:01;101391.0;;;25.62;42.57
64019;BME280;66942;52.138;5.216;2023-07-13T01:57:37;101390.0;;;25.58;42.72
64019;BME280;66942;52.138;5.216;2023-07-13T01:59:13;101387.0;;;25.45;43.02
64019;BME280;66942;52.138;5.216;2023-07-13T02:00:51;101385.0;;;25.5;43.1
64019;BME280;66942;52.138;5.216;2023-07-13T02:04:04;101388.0;;;25.49;42.95
64019;BME280;66942;52.138;5.216;2023-07-13T02:05:40;101387.0;;;25.63;42.89
64019;BME280;66942;52.138;5.216;2023-07-13T02:07:16;101391.0;;;25.54;43.36
64019;BME280;66942;52.138;5.216;2023-07-13T02:10:29;101386.0;;;25.44;43.46
64019;BME280;66942;52.138;5.216;2023-07-13T02:12:06;101385.0;;;25.44;43.53
64019;BME280;66942;52.138;5.216;2023-07-13T02:13:43;101386.0;;;25.51;43.38
64019;BME280;66942;52.138;5.216;2023-07-13T02:16:55;101393.0;;;25.54;43.27
64019;BME280;66942;52.138;5.216;2023-07-13T02:18:31;101397.0;;;25.59;43.26
64019;BME280;66942;52.138;5.216;2023-07-13T02:20:08;101399.0;;;25.48;43.47
64019;BME280;66942;52.138;5.216;2023-07-13T02:21:44;101400.0;;;25.55;43.35
64019;BME280;66942;52.138;5.216;2023-07-13T02:24:57;101399.0;;;25.61;43.16
64019;BME280;66942;52.138;5.216;2023-07-13T02:26:33;101397.0;;;25.46;43.51
64019;BME280;66942;52.138;5.216;2023-07-13T02:28:10;101397.0;;;25.47;43.49
64019;BME280;66942;52.138;5.216;2023-07-13T02:31:22;101401.0;;;25.34;43.87
64019;BME280;66942;52.138;5.216;2023-07-13T02:32:58;101399.0;;;25.42;43.68
64019;BME280;66942;52.138;5.216;2023-07-13T02:34:34;101399.0;;;25.0;44.87
64019;BME280;66942;52.138;5.216;2023-07-13T02:37:49;101397.0;;;25.29;44.1
64019;BME280;66942;52.138;5.216;2023-07-13T02:39:25;101397.0;;;25.36;44.02
64019;BME280;66942;52.138;5.216;2023-07-13T02:41:01;101395.0;;;25.17;44.58
64019;BME280;66942;52.138;5.216;2023-07-13T02:44:13;101391.0;;;25.29;44.35
64019;BME280;66942;52.138;5.216;2023-07-13T02:45:51;101399.0;;;25.25;44.31
64019;BME280;66942;52.138;5.216;2023-07-13T02:47:26;101405.0;;;25.18;44.51
64019;BME280;66942;52.138;5.216;2023-07-13T02:49:03;101402.0;;;25.23;44.61
64019;BME280;66942;52.138;5.216;2023-07-13T02:52:16;101403.0;;;25.34;44.44
64019;BME280;66942;52.138;5.216;2023-07-13T02:53:52;101400.0;;;25.35;44.41
64019;BME280;66942;52.138;5.216;2023-07-13T02:55:28;101397.0;;;25.29;44.54
64019;BME280;66942;52.138;5.216;2023-07-13T02:58:41;101396.0;;;25.23;44.82
64019;BME280;66942;52.138;5.216;2023-07-13T03:00:18;101399.0;;;25.18;45.04
64019;BME280;66942;52.138;5.216;2023-07-13T03:01:54;101401.0;;;25.13;45.3
64019;BME280;66942;52.138;5.216;2023-07-13T03:05:06;101401.0;;;25.11;45.3
64019;BME280;66942;52.138;5.216;2023-07-13T03:06:43;101405.0;;;25.14;45.35
64019;BME280;66942;52.138;5.216;2023-07-13T03:08:19;101405.0;;;25.12;45.27
64019;BME280;66942;52.138;5.216;2023-07-13T03:09:56;101407.0;;;25.11;45.35
64019;BME280;66942;52.138;5.216;2023-07-13T03:13:09;101411.0;;;25.17;45.31
64019;BME280;66942;52.138;5.216;2023-07-13T03:14:45;101412.0;;;25.22;45.12
64019;BME280;66942;52.138;5.216;2023-07-13T03:16:21;101410.0;;;25.31;44.82
64019;BME280;66942;52.138;5.216;2023-07-13T03:19:34;101412.0;;;25.07;45.45
64019;BME280;66942;52.138;5.216;2023-07-13T03:21:10;101410.0;;;25.06;45.7
64019;BME280;66942;52.138;5.216;2023-07-13T03:22:46;101402.0;;;25.05;45.71
64019;BME280;66942;52.138;5.216;2023-07-13T03:26:04;101403.0;;;25.05;45.67
64019;BME280;66942;52.138;5.216;2023-07-13T03:27:41;101401.0;;;25.13;45.61
64019;BME280;66942;52.138;5.216;2023-07-13T03:29:17;101409.0;;;24.92;45.97
64019;BME280;66942;52.138;5.216;2023-07-13T03:30:59;101410.0;;;24.88;45.99
64019;BME280;66942;52.138;5.216;2023-07-13T03:34:12;101416.0;;;24.99;45.64
64019;BME280;66942;52.138;5.216;2023-07-13T03:35:47;101418.0;;;24.87;46.0
64019;BME280;66942;52.138;5.216;2023-07-13T03:37:24;101418.0;;;24.92;45.87
64019;BME280;66942;52.138;5.216;2023-07-13T03:40:38;101418.0;;;24.78;46.06
64019;BME280;66942;52.138;5.216;2023-07-13T03:42:14;101417.0;;;24.83;45.97
64019;BME280;66942;52.138;5.216;2023-07-13T03:43:51;101425.0;;;24.76;46.17
64019;BME280;66942;52.138;5.216;2023-07-13T03:45:27;101424.0;;;24.86;45.91
64019;BME280;66942;52.138;5.216;2023-07-13T03:48:40;101423.0;;;24.95;45.54
64019;BME280;66942;52.138;5.216;2023-07-13T03:50:16;101428.0;;;24.9;45.74
64019;BME280;66942;52.138;5.216;2023-07-13T03:51:52;101428.0;;;24.93;45.81
64019;BME280;66942;52.138;5.216;2023-07-13T03:55:05;101426.0;;;24.95;45.69
64019;BME280;66942;52.138;5.216;2023-07-13T03:56:41;101427.0;;;24.9;45.91
64019;BME280;66942;52.138;5.216;2023-07-13T03:58:28;101432.0;;;25.03;45.66
64019;BME280;66942;52.138;5.216;2023-07-13T04:00:13;101435.0;;;25.09;45.5
64019;BME280;66942;52.138;5.216;2023-07-13T04:03:26;101435.0;;;25.17;45.33
64019;BME280;66942;52.138;5.216;2023-07-13T04:05:04;101439.0;;;25.19;45.31
64019;BME280;66942;52.138;5.216;2023-07-13T04:06:40;101441.0;;;25.23;45.14
64019;BME280;66942;52.138;5.216;2023-07-13T04:09:52;101446.0;;;25.27;45.09
64019;BME280;66942;52.138;5.216;2023-07-13T04:11:30;101448.0;;;25.38;44.87
64019;BME280;66942;52.138;5.216;2023-07-13T04:13:08;101451.0;;;25.3;45.14
64019;BME280;66942;52.138;5.216;2023-07-13T04:14:44;101446.0;;;25.34;45.05
64019;BME280;66942;52.138;5.216;2023-07-13T04:17:58;101448.0;;;25.36;45.07
64019;BME280;66942;52.138;5.216;2023-07-13T04:19:34;101450.0;;;25.26;45.36
64019;BME280;66942;52.138;5.216;2023-07-13T04:21:11;101453.0;;;25.22;45.6
64019;BME280;66942;52.138;5.216;2023-07-13T04:24:24;101455.0;;;25.38;45.3
64019;BME280;66942;52.138;5.216;2023-07-13T04:26:00;101460.0;;;25.13;45.98
64019;BME280;66942;52.138;5.216;2023-07-13T04:27:36;101460.0;;;25.29;45.71
64019;BME280;66942;52.138;5.216;2023-07-13T04:30:49;101458.0;;;25.34;45.63
64019;BME280;66942;52.138;5.216;2023-07-13T04:32:25;101456.0;;;25.31;45.73
64019;BME280;66942;52.138;5.216;2023-07-13T04:34:02;101457.0;;;25.48;45.47
64019;BME280;66942;52.138;5.216;2023-07-13T04:37:15;101462.0;;;25.42;45.67
64019;BME280;66942;52.138;5.216;2023-07-13T04:38:51;101464.0;;;25.33;45.96
64019;BME280;66942;52.138;5.216;2023-07-13T04:40:27;101465.0;;;25.43;45.77
64019;BME280;66942;52.138;5.216;2023-07-13T04:42:05;101470.0;;;25.46;45.92
64019;BME280;66942;52.138;5.216;2023-07-13T04:45:18;101470.0;;;25.48;45.97
64019;BME280;66942;52.138;5.216;2023-07-13T04:46:54;101462.0;;;25.52;46.11
64019;BME280;66942;52.138;5.216;2023-07-13T04:48:30;101464.0;;;25.56;45.9
64019;BME280;66942;52.138;5.216;2023-07-13T04:51:44;101466.0;;;25.64;45.75
64019;BME280;66942;52.138;5.216;2023-07-13T04:53:20;101467.0;;;25.59;45.97
64019;BME280;66942;52.138;5.216;2023-07-13T04:54:56;101471.0;;;25.72;45.67
64019;BME280;66942;52.138;5.216;2023-07-13T04:58:09;101469.0;;;25.68;45.78
64019;BME280;66942;52.138;5.216;2023-07-13T04:59:45;101464.0;;;25.63;46.04
64019;BME280;66942;52.138;5.216;2023-07-13T05:01:21;101470.0;;;25.76;45.78
64019;BME280;66942;52.138;5.216;2023-07-13T05:02:58;101470.0;;;25.65;46.15
64019;BME280;66942;52.138;5.216;2023-07-13T05:06:10;101473.0;;;25.68;46.11
64019;BME280;66942;52.138;5.216;2023-07-13T05:07:46;101475.0;;;25.86;45.74
64019;BME280;66942;52.138;5.216;2023-07-13T05:09:23;101476.0;;;25.91;45.75
64019;BME280;66942;52.138;5.216;2023-07-13T05:12:36;101480.0;;;25.96;45.76
64019;BME280;66942;52.138;5.216;2023-07-13T05:14:12;101478.0;;;25.67;46.55
64019;BME280;66942;52.138;5.216;2023-07-13T05:15:56;101480.0;;;25.97;45.93
64019;BME280;66942;52.138;5.216;2023-07-13T05:17:32;101480.0;;;26.05;45.7
64019;BME280;66942;52.138;5.216;2023-07-13T05:20:46;101482.0;;;26.08;45.67
64019;BME280;66942;52.138;5.216;2023-07-13T05:22:23;101482.0;;;26.14;45.59
64019;BME280;66942;52.138;5.216;2023-07-13T05:23:59;101483.0;;;26.2;45.42
64019;BME280;66942;52.138;5.216;2023-07-13T05:27:11;101485.0;;;26.31;45.4
64019;BME280;66942;52.138;5.216;2023-07-13T05:28:47;101489.0;;;26.44;45.15
64019;BME280;66942;52.138;5.216;2023-07-13T05:30:23;101494.0;;;26.3;45.63
64019;BME280;66942;52.138;5.216;2023-07-13T05:33:36;101492.0;;;25.79;46.34
64019;BME280;66942;52.138;5.216;2023-07-13T05:35:12;101498.0;;;26.45;45.29
64019;BME280;66942;52.138;5.216;2023-07-13T05:36:48;101502.0;;;26.33;45.35
64019;BME280;66942;52.138;5.216;2023-07-13T05:38:25;101499.0;;;26.39;45.4
64019;BME280;66942;52.138;5.216;2023-07-13T05:41:37;101496.0;;;26.43;45.5
64019;BME280;66942;52.138;5.216;2023-07-13T05:43:14;101495.0;;;26.44;45.52
64019;BME280;66942;52.138;5.216;2023-07-13T05:44:51;101496.0;;;26.52;45.29
64019;BME280;66942;52.138;5.216;2023-07-13T05:48:04;101495.0;;;26.62;45.03
64019;BME280;66942;52.138;5.216;2023-07-13T05:49:40;101497.0;;;26.42;45.3
64019;BME280;66942;52.138;5.216;2023-07-13T05:51:16;101499.0;;;26.71;44.91
64019;BME280;66942;52.138;5.216;2023-07-13T05:54:29;101500.0;;;26.72;45.02
64019;BME280;66942;52.138;5.216;2023-07-13T05:56:05;101507.0;;;26.72;45.15
64019;BME280;66942;52.138;5.216;2023-07-13T05:57:41;101509.0;;;26.9;45.02
64019;BME280;66942;52.138;5.216;2023-07-13T06:01:00;101515.0;;;26.81;45.07
64019;BME280;66942;52.138;5.216;2023-07-13T06:02:36;101516.0;;;26.88;44.56
64019;BME280;66942;52.138;5.216;2023-07-13T06:04:12;101516.0;;;26.96;44.24
64019;BME280;66942;52.138;5.216;2023-07-13T06:05:48;101519.0;;;26.99;44.1
64019;BME280;66942;52.138;5.216;2023-07-13T06:09:01;101526.0;;;27.05;44.11
64019;BME280;66942;52.138;5.216;2023-07-13T06:10:38;101530.0;;;27.09;44.22
64019;BME280;66942;52.138;5.216;2023-07-13T06:12:14;101530.0;;;27.12;44.13
64019;BME280;66942;52.138;5.216;2023-07-13T06:15:27;101535.0;;;27.22;44.11
64019;BME280;66942;52.138;5.216;2023-07-13T06:17:04;101534.0;;;27.19;44.26
64019;BME280;66942;52.138;5.216;2023-07-13T06:18:41;101531.0;;;27.38;44.21
64019;BME280;66942;52.138;5.216;2023-07-13T06:20:18;101534.0;;;27.56;43.84
64019;BME280;66942;52.138;5.216;2023-07-13T06:23:30;101539.0;;;27.53;43.69
64019;BME280;66942;52.138;5.216;2023-07-13T06:25:07;101543.0;;;27.5;43.5
64019;BME280;66942;52.138;5.216;2023-07-13T06:26:43;101543.0;;;27.61;43.55
64019;BME280;66942;52.138;5.216;2023-07-13T06:29:55;101539.0;;;27.71;43.18
64019;BME280;66942;52.138;5.216;2023-07-13T06:31:31;101543.0;;;27.77;43.0
64019;BME280;66942;52.138;5.216;2023-07-13T06:33:07;101541.0;;;27.73;43.17
64019;BME280;66942;52.138;5.216;2023-07-13T06:36:19;101543.0;;;27.77;43.0
64019;BME280;66942;52.138;5.216;2023-07-13T06:37:55;101537.0;;;27.82;42.94
64019;BME280;66942;52.138;5.216;2023-07-13T06:39:32;101536.0;;;27.84;42.93
64019;BME280;66942;52.138;5.216;2023-07-13T06:42:45;101538.0;;;27.7;43.04
64019;BME280;66942;52.138;5.216;2023-07-13T06:44:21;101536.0;;;27.81;42.83
64019;BME280;66942;52.138;5.216;2023-07-13T06:45:57;101536.0;;;27.84;42.92
64019;BME280;66942;52.138;5.216;2023-07-13T06:47:34;101539.0;;;27.33;43.55
64019;BME280;66942;52.138;5.216;2023-07-13T06:50:48;101546.0;;;27.71;43.03
64019;BME280;66942;52.138;5.216;2023-07-13T06:52:25;101551.0;;;27.73;43.25
64019;BME280;66942;52.138;5.216;2023-07-13T06:54:01;101556.0;;;27.87;42.91
64019;BME280;66942;52.138;5.216;2023-07-13T06:57:14;101561.0;;;27.89;43.05
64019;BME280;66942;52.138;5.216;2023-07-13T06:58:50;101561.0;;;27.55;43.46
64019;BME280;66942;52.138;5.216;2023-07-13T07:00:26;101565.0;;;27.92;42.97
64019;BME280;66942;52.138;5.216;2023-07-13T07:03:40;101570.0;;;27.95;43.01
64019;BME280;66942;52.138;5.216;2023-07-13T07:05:16;101565.0;;;28.07;42.97
64019;BME280;66942;52.138;5.216;2023-07-13T07:06:52;101569.0;;;28.08;42.78
64019;BME280;66942;52.138;5.216;2023-07-13T07:08:28;101576.0;;;28.07;42.91
64019;BME280;66942;52.138;5.216;2023-07-13T07:11:42;101577.0;;;27.72;44.12
64019;BME280;66942;52.138;5.216;2023-07-13T07:13:18;101583.0;;;27.89;43.66
64019;BME280;66942;52.138;5.216;2023-07-13T07:14:55;101586.0;;;27.89;43.89
64019;BME280;66942;52.138;5.216;2023-07-13T07:18:07;101592.0;;;27.75;44.45
64019;BME280;66942;52.138;5.216;2023-07-13T07:19:43;101591.0;;;27.71;44.08
64019;BME280;66942;52.138;5.216;2023-07-13T07:21:19;101595.0;;;27.55;44.32
64019;BME280;66942;52.138;5.216;2023-07-13T07:24:31;101593.0;;;27.49;43.96
64019;BME280;66942;52.138;5.216;2023-07-13T07:26:08;101592.0;;;27.33;43.57
64019;BME280;66942;52.138;5.216;2023-07-13T07:27:44;101590.0;;;27.31;43.19
64019;BME280;66942;52.138;5.216;2023-07-13T07:29:21;101583.0;;;27.2;43.44
64019;BME280;66942;52.138;5.216;2023-07-13T07:32:34;101584.0;;;27.13;43.69
64019;BME280;66942;52.138;5.216;2023-07-13T07:34:10;101576.0;;;27.13;43.88
64019;BME280;66942;52.138;5.216;2023-07-13T07:35:46;101573.0;;;27.05;44.11
64019;BME280;66942;52.138;5.216;2023-07-13T07:39:00;101578.0;;;26.88;45.13
64019;BME280;66942;52.138;5.216;2023-07-13T07:40:36;101577.0;;;26.96;45.07
64019;BME280;66942;52.138;5.216;2023-07-13T07:42:13;101574.0;;;26.99;45.23
64019;BME280;66942;52.138;5.216;2023-07-13T07:45:26;101576.0;;;27.09;46.12
64019;BME280;66942;52.138;5.216;2023-07-13T07:47:03;101577.0;;;27.12;46.81
64019;BME280;66942;52.138;5.216;2023-07-13T07:48:39;101580.0;;;27.44;47.16
64019;BME280;66942;52.138;5.216;2023-07-13T07:50:16;101580.0;;;27.73;46.69
64019;BME280;66942;52.138;5.216;2023-07-13T07:53:28;101572.0;;;28.11;46.65
64019;BME280;66942;52.138;5.216;2023-07-13T07:55:06;101580.0;;;28.68;45.28
64019;BME280;66942;52.138;5.216;2023-07-13T07:56:43;101587.0;;;28.9;43.78
64019;BME280;66942;52.138;5.216;2023-07-13T07:59:56;101585.0;;;29.0;43.18
64019;BME280;66942;52.138;5.216;2023-07-13T08:01:32;101585.0;;;29.0;42.06
64019;BME280;66942;52.138;5.216;2023-07-13T08:03:09;101584.0;;;29.47;41.93
64019;BME280;66942;52.138;5.216;2023-07-13T08:06:22;101575.0;;;29.37;41.92
64019;BME280;66942;52.138;5.216;2023-07-13T08:08:00;101575.0;;;29.65;40.42
64019;BME280;66942;52.138;5.216;2023-07-13T08:09:36;101580.0;;;29.71;40.58
64019;BME280;66942;52.138;5.216;2023-07-13T08:11:13;101571.0;;;29.01;40.67
64019;BME280;66942;52.138;5.216;2023-07-13T08:14:25;101575.0;;;29.86;40.65
64019;BME280;66942;52.138;5.216;2023-07-13T08:16:01;101580.0;;;29.57;39.96
64019;BME280;66942;52.138;5.216;2023-07-13T08:17:40;101580.0;;;29.93;39.29
64019;BME280;66942;52.138;5.216;2023-07-13T08:20:53;101575.0;;;30.03;39.06
64019;BME280;66942;52.138;5.216;2023-07-13T08:22:29;101573.0;;;30.05;38.71
64019;BME280;66942;52.138;5.216;2023-07-13T08:24:06;101582.0;;;30.08;39.6
64019;BME280;66942;52.138;5.216;2023-07-13T08:27:28;101580.0;;;30.1;38.97
64019;BME280;66942;52.138;5.216;2023-07-13T08:29:04;101581.0;;;30.1;38.96
64019;BME280;66942;52.138;5.216;2023-07-13T08:30:40;101576.0;;;29.96;38.64
64019;BME280;66942;52.138;5.216;2023-07-13T08:32:17;101580.0;;;30.0;38.08
64019;BME280;66942;52.138;5.216;2023-07-13T08:35:31;101580.0;;;29.94;37.01
64019;BME280;66942;52.138;5.216;2023-07-13T08:37:09;101592.0;;;29.58;37.24
64019;BME280;66942;52.138;5.216;2023-07-13T08:38:45;101602.0;;;29.39;38.71
64019;BME280;66942;52.138;5.216;2023-07-13T08:42:05;101611.0;;;29.27;39.54
64019;BME280;66942;52.138;5.216;2023-07-13T08:43:50;101635.0;;;29.28;38.81
64019;BME280;66942;52.138;5.216;2023-07-13T08:45:37;101622.0;;;28.91;40.46
64019;BME280;66942;52.138;5.216;2023-07-13T08:47:19;101618.0;;;28.74;40.19
64019;BME280;66942;52.138;5.216;2023-07-13T08:49:02;101620.0;;;28.26;41.48
64019;BME280;66942;52.138;5.216;2023-07-13T08:52:37;101626.0;;;28.13;41.89
64019;BME280;66942;52.138;5.216;2023-07-13T08:54:19;101628.0;;;27.77;42.3
64019;BME280;66942;52.138;5.216;2023-07-13T08:55:59;101619.0;;;27.57;42.42
64019;BME280;66942;52.138;5.216;2023-07-13T08:57:37;101619.0;;;27.51;42.43
64019;BME280;66942;52.138;5.216;2023-07-13T08:59:19;101616.0;;;27.39;42.76
64019;BME280;66942;52.138;5.216;2023-07-13T09:02:46;101619.0;;;27.02;43.95
64019;BME280;66942;52.138;5.216;2023-07-13T09:04:32;101614.0;;;26.89;44.18
64019;BME280;66942;52.138;5.216;2023-07-13T09:06:12;101615.0;;;26.78;45.14
64019;BME280;66942;52.138;5.216;2023-07-13T09:08:02;101624.0;;;26.68;45.76
64019;BME280;66942;52.138;5.216;2023-07-13T09:09:58;101617.0;;;26.6;47.33
64019;BME280;66942;52.138;5.216;2023-07-13T09:13:37;101616.0;;;26.77;47.07
64019;BME280;66942;52.138;5.216;2023-07-13T09:15:24;101612.0;;;26.63;47.37
64019;BME280;66942;52.138;5.216;2023-07-13T09:17:05;101608.0;;;26.73;47.3
64019;BME280;66942;52.138;5.216;2023-07-13T09:18:50;101602.0;;;27.06;46.85
64019;BME280;66942;52.138;5.216;2023-07-13T09:20:31;101607.0;;;27.09;47.92
64019;BME280;66942;52.138;5.216;2023-07-13T09:24:00;101616.0;;;27.14;48.59
64019;BME280;66942;52.138;5.216;2023-07-13T09:26:01;101615.0;;;27.5;48.67
64019;BME280;66942;52.138;5.216;2023-07-13T09:27:43;101617.0;;;27.74;47.57
64019;BME280;66942;52.138;5.216;2023-07-13T09:29:27;101622.0;;;27.77;47.04
64019;BME280;66942;52.138;5.216;2023-07-13T09:31:08;101628.0;;;27.87;46.51
64019;BME280;66942;52.138;5.216;2023-07-13T09:32:51;101630.0;;;27.87;47.25
64019;BME280;66942;52.138;5.216;2023-07-13T09:36:17;101644.0;;;27.88;46.52
64019;BME280;66942;52.138;5.216;2023-07-13T09:38:04;101674.0;;;27.34;45.63
64019;BME280;66942;52.138;5.216;2023-07-13T09:39:46;101668.0;;;27.14;43.04
64019;BME280;66942;52.138;5.216;2023-07-13T09:41:29;101644.0;;;27.0;42.86
64019;BME280;66942;52.138;5.216;2023-07-13T09:44:53;101636.0;;;26.77;42.61
64019;BME280;66942;52.138;5.216;2023-07-13T09:46:30;101636.0;;;26.44;43.71
64019;BME280;66942;52.138;5.216;2023-07-13T09:48:10;101639.0;;;26.2;44.0
64019;BME280;66942;52.138;5.216;2023-07-13T09:49:54;101636.0;;;25.95;45.5
64019;BME280;66942;52.138;5.216;2023-07-13T09:53:12;101634.0;;;26.0;46.1
64019;BME280;66942;52.138;5.216;2023-07-13T09:54:50;101632.0;;;26.1;47.17
64019;BME280;66942;52.138;5.216;2023-07-13T09:56:29;101637.0;;;26.39;47.51
64019;BME280;66942;52.138;5.216;2023-07-13T09:58:10;101635.0;;;26.78;47.4
64019;BME280;66942;52.138;5.216;2023-07-13T10:01:33;101641.0;;;27.06;47.51
64019;BME280;66942;52.138;5.216;2023-07-13T10:03:17;101644.0;;;27.17;47.86
64019;BME280;66942;52.138;5.216;2023-07-13T10:04:56;101633.0;;;27.53;46.95
64019;BME280;66942;52.138;5.216;2023-07-13T10:06:34;101640.0;;;27.6;46.19
64019;BME280;66942;52.138;5.216;2023-07-13T10:09:59;101638.0;;;27.44;46.25
64019;BME280;66942;52.138;5.216;2023-07-13T10:11:37;101645.0;;;27.49;46.28
64019;BME280;66942;52.138;5.216;2023-07-13T10:13:34;101644.0;;;27.43;46.92
64019;BME280;66942;52.138;5.216;2023-07-13T10:15:15;101653.0;;;27.57;46.85
64019;BME280;66942;52.138;5.216;2023-07-13T10:16:58;101656.0;;;27.74;47.39
64019;BME280;66942;52.138;5.216;2023-07-13T10:20:21;101661.0;;;27.65;47.68
64019;BME280;66942;52.138;5.216;2023-07-13T10:22:00;101666.0;;;27.91;47.3
64019;BME280;66942;52.138;5.216;2023-07-13T10:23:38;101661.0;;;28.06;46.6
64019;BME280;66942;52.138;5.216;2023-07-13T10:25:17;101661.0;;;28.07;46.24
64019;BME280;66942;52.138;5.216;2023-07-13T10:28:52;101659.0;;;28.14;45.77
64019;BME280;66942;52.138;5.216;2023-07-13T10:30:33;101660.0;;;27.91;46.74
64019;BME280;66942;52.138;5.216;2023-07-13T10:32:14;101662.0;;;27.97;46.86
64019;BME280;66942;52.138;5.216;2023-07-13T10:33:51;101667.0;;;28.02;47.27
64019;BME280;66942;52.138;5.216;2023-07-13T10:37:12;101666.0;;;28.18;47.12
64019;BME280;66942;52.138;5.216;2023-07-13T10:38:53;101668.0;;;28.21;48.96
64019;BME280;66942;52.138;5.216;2023-07-13T10:40:34;101659.0;;;28.32;48.28
64019;BME280;66942;52.138;5.216;2023-07-13T10:42:21;101656.0;;;28.3;47.03
64019;BME280;66942;52.138;5.216;2023-07-13T10:44:18;101655.0;;;28.84;47.0
64019;BME280;66942;52.138;5.216;2023-07-13T10:47:33;101659.0;;;29.1;47.71
64019;BME280;66942;52.138;5.216;2023-07-13T10:49:11;101658.0;;;29.26;46.7
64019;BME280;66942;52.138;5.216;2023-07-13T10:50:50;101661.0;;;29.5;46.16
64019;BME280;66942;52.138;5.216;2023-07-13T10:52:42;101663.0;;;29.32;45.68
64019;BME280;66942;52.138;5.216;2023-07-13T10:54:27;101666.0;;;29.41;44.19
64019;BME280;66942;52.138;5.216;2023-07-13T10:58:00;101665.0;;;29.48;43.83
64019;BME280;66942;52.138;5.216;2023-07-13T10:59:38;101667.0;;;29.4;42.61
64019;BME280;66942;52.138;5.216;2023-07-13T11:01:16;101669.0;;;29.57;43.01
64019;BME280;66942;52.138;5.216;2023-07-13T11:02:57;101672.0;;;29.49;43.16
64019;BME280;66942;52.138;5.216;2023-07-13T11:06:33;101668.0;;;29.79;44.27